createdAt,value
2022-09-09T00:01:23.560Z,-252.00
2022-09-09T00:06:30.814Z,-252.00
2022-09-09T00:11:38.091Z,-216.00
2022-09-09T00:16:45.415Z,-252.00
2022-09-09T00:21:52.651Z,-216.00
2022-09-09T00:26:59.921Z,-216.00
2022-09-09T00:32:07.147Z,-252.00
2022-09-09T00:37:14.351Z,-216.00
2022-09-09T00:42:21.576Z,-252.00
2022-09-09T00:47:28.860Z,-216.00
2022-09-09T00:52:36.062Z,-252.00
2022-09-09T00:57:43.360Z,-216.00
2022-09-09T01:02:50.736Z,-216.00
2022-09-09T01:07:58.513Z,-252.00
2022-09-09T01:13:05.238Z,-252.00
2022-09-09T01:18:12.508Z,-252.00
2022-09-09T01:23:19.732Z,-252.00
2022-09-09T01:28:27.235Z,-252.00
2022-09-09T01:33:34.462Z,-252.00
2022-09-09T01:38:41.963Z,-216.00
2022-09-09T01:43:49.206Z,-252.00
2022-09-09T01:48:56.393Z,-252.00
2022-09-09T01:54:03.676Z,-252.00
2022-09-09T01:59:10.898Z,-252.00
2022-09-09T02:04:18.164Z,-252.00
2022-09-09T02:09:25.330Z,-216.00
2022-09-09T02:14:32.512Z,-252.00
2022-09-09T02:19:39.730Z,-252.00
2022-09-09T02:24:46.968Z,-252.00
2022-09-09T02:29:54.157Z,-216.00
2022-09-09T02:35:01.370Z,-252.00
2022-09-09T02:40:08.616Z,-252.00
2022-09-09T02:45:15.672Z,-216.00
2022-09-09T02:50:22.936Z,-252.00
2022-09-09T02:55:30.093Z,-252.00
2022-09-09T03:00:37.276Z,-216.00
2022-09-09T03:05:44.471Z,-252.00
2022-09-09T03:10:51.658Z,-216.00
2022-09-09T03:15:58.825Z,-216.00
2022-09-09T03:21:06.040Z,-252.00
2022-09-09T03:26:13.286Z,-252.00
2022-09-09T03:31:20.621Z,-252.00
2022-09-09T03:36:27.717Z,-216.00
2022-09-09T03:41:34.874Z,-216.00
2022-09-09T03:46:42.151Z,-252.00
2022-09-09T03:51:49.351Z,-252.00
2022-09-09T03:56:56.515Z,-216.00
2022-09-09T04:02:03.796Z,-216.00
2022-09-09T04:07:10.936Z,-252.00
2022-09-09T04:12:18.178Z,-252.00
2022-09-09T04:17:25.353Z,-252.00
2022-09-09T04:22:32.606Z,-216.00
2022-09-09T04:27:39.817Z,-252.00
2022-09-09T04:32:47.012Z,-216.00
2022-09-09T04:37:54.206Z,-216.00
2022-09-09T04:43:01.382Z,-252.00
2022-09-09T04:48:08.556Z,-216.00
2022-09-09T04:53:15.769Z,-216.00
2022-09-09T04:58:22.925Z,-180.00
2022-09-09T05:03:30.111Z,-180.00
2022-09-09T05:08:37.506Z,-108.00
2022-09-09T05:13:44.474Z,-144.00
2022-09-09T05:18:51.666Z,-144.00
2022-09-09T05:23:58.942Z,-108.00
2022-09-09T05:29:06.140Z,-144.00
2022-09-09T05:34:13.322Z,36.00
2022-09-09T05:39:20.563Z,-180.00
2022-09-09T05:44:27.797Z,1728.00
2022-09-09T05:49:34.977Z,1764.00
2022-09-09T05:54:42.197Z,2304.00
2022-09-09T05:59:49.333Z,2484.00
2022-09-09T06:04:59.969Z,3132.00
2022-09-09T06:10:03.733Z,3564.00
2022-09-09T06:15:10.897Z,2592.00
2022-09-09T06:20:18.088Z,2448.00
2022-09-09T06:25:25.716Z,2232.00
2022-09-09T06:30:32.857Z,1980.00
2022-09-09T06:35:40.044Z,1908.00
2022-09-09T06:40:47.323Z,2592.00
2022-09-09T06:45:54.515Z,4104.00
2022-09-09T06:51:01.693Z,4320.00
2022-09-09T06:56:08.926Z,5760.00
2022-09-09T07:01:16.222Z,6660.00
2022-09-09T07:06:23.359Z,6336.00
2022-09-09T07:11:30.572Z,7848.00
2022-09-09T07:16:37.742Z,9180.00
2022-09-09T07:21:44.977Z,8676.00
2022-09-09T07:26:52.205Z,8064.00
2022-09-09T07:31:59.401Z,8244.00
2022-09-09T07:37:06.586Z,7848.00
2022-09-09T07:42:13.836Z,7452.00
2022-09-09T07:47:21.024Z,7596.00
2022-09-09T07:52:28.303Z,6840.00
2022-09-09T07:57:35.446Z,5760.00
2022-09-09T08:02:42.637Z,5076.00
2022-09-09T08:07:49.775Z,4176.00
2022-09-09T08:13:16.965Z,4032.00
2022-09-09T08:18:04.571Z,4356.00
2022-09-09T08:23:11.768Z,11628.00
2022-09-09T08:28:19.031Z,12096.00
2022-09-09T08:33:26.217Z,12204.00
2022-09-09T08:38:33.385Z,12276.00
2022-09-09T08:43:40.594Z,12456.00
2022-09-09T08:48:47.773Z,12564.00
2022-09-09T08:53:59.554Z,12672.00
2022-09-09T08:59:02.259Z,12456.00
2022-09-09T09:04:09.691Z,12348.00
2022-09-09T09:09:16.728Z,12564.00
2022-09-09T09:14:24.006Z,12384.00
2022-09-09T09:19:31.120Z,12744.00
2022-09-09T09:24:38.344Z,13176.00
2022-09-09T09:30:03.776Z,13212.00
2022-09-09T09:34:52.747Z,13572.00
2022-09-09T09:45:07.185Z,15120.00
2022-09-09T09:50:14.453Z,15768.00
2022-09-09T09:55:21.726Z,17028.00
2022-09-09T10:00:29.031Z,18936.00
2022-09-09T10:05:36.492Z,20232.00
2022-09-09T10:10:47.860Z,19872.00
2022-09-09T10:15:50.800Z,19440.00
2022-09-09T10:20:58.008Z,19404.00
2022-09-09T10:26:05.228Z,17388.00
2022-09-09T10:31:12.579Z,16596.00
2022-09-09T10:36:19.797Z,18216.00
2022-09-09T10:41:27.063Z,16524.00
2022-09-09T10:46:34.425Z,17712.00
2022-09-09T10:51:42.432Z,19692.00
2022-09-09T10:56:48.771Z,20196.00
2022-09-09T11:01:56.116Z,18432.00
2022-09-09T11:07:03.333Z,18108.00
2022-09-09T11:12:10.711Z,18000.00
2022-09-09T11:17:18.581Z,17604.00
2022-09-09T11:22:25.728Z,17532.00
2022-09-09T11:27:32.950Z,18216.00
2022-09-09T11:32:40.167Z,18864.00
2022-09-09T11:37:47.301Z,20808.00
2022-09-09T11:42:54.575Z,22356.00
2022-09-09T11:48:01.774Z,19908.00
2022-09-09T11:53:08.940Z,15048.00
2022-09-09T11:58:16.195Z,13752.00
2022-09-09T12:03:23.429Z,17928.00
2022-09-09T12:08:30.687Z,19296.00
2022-09-09T12:13:37.859Z,19008.00
2022-09-09T12:18:45.186Z,18756.00
2022-09-09T12:23:52.326Z,17640.00
2022-09-09T12:28:59.525Z,19116.00
2022-09-09T12:34:06.756Z,18936.00
2022-09-09T12:39:13.943Z,20844.00
2022-09-09T12:44:21.174Z,20340.00
2022-09-09T12:49:28.393Z,18396.00
2022-09-09T12:54:35.721Z,16776.00
2022-09-09T12:59:42.944Z,16920.00
2022-09-09T13:04:50.139Z,18288.00
2022-09-09T13:09:57.297Z,18648.00
2022-09-09T13:15:04.492Z,18936.00
2022-09-09T13:20:11.715Z,17352.00
2022-09-09T13:25:18.873Z,16740.00
2022-09-09T13:30:26.091Z,17064.00
2022-09-09T13:35:33.257Z,17244.00
2022-09-09T13:40:40.428Z,16128.00
2022-09-09T13:45:47.747Z,16884.00
2022-09-09T13:50:54.899Z,16884.00
2022-09-09T13:56:02.062Z,16524.00
2022-09-09T14:01:09.289Z,16848.00
2022-09-09T14:06:16.466Z,16092.00
2022-09-09T14:11:23.621Z,15660.00
2022-09-09T14:16:30.825Z,15588.00
2022-09-09T14:21:38.119Z,15408.00
2022-09-09T14:26:45.289Z,14436.00
2022-09-09T14:31:52.548Z,14544.00
2022-09-09T14:36:59.849Z,14976.00
2022-09-09T14:42:07.029Z,13896.00
2022-09-09T14:47:14.276Z,14544.00
2022-09-09T14:52:21.550Z,14940.00
2022-09-09T14:57:28.779Z,14328.00
2022-09-09T15:02:36.040Z,15264.00
2022-09-09T15:07:43.231Z,14112.00
2022-09-09T15:12:50.473Z,14544.00
2022-09-09T15:17:57.771Z,15012.00
2022-09-09T15:23:04.977Z,18072.00
2022-09-09T15:28:12.121Z,15264.00
2022-09-09T15:33:19.324Z,17028.00
2022-09-09T15:38:26.620Z,18108.00
2022-09-09T15:43:33.847Z,17424.00
2022-09-09T15:48:41.047Z,17064.00
2022-09-09T15:53:48.258Z,17388.00
2022-09-09T15:58:55.413Z,17676.00
2022-09-09T16:04:02.664Z,17568.00
2022-09-09T16:09:09.937Z,16992.00
2022-09-09T16:14:17.182Z,13356.00
2022-09-09T16:19:24.357Z,12852.00
2022-09-09T16:24:31.578Z,12708.00
2022-09-09T16:29:38.730Z,13608.00
2022-09-09T16:34:45.913Z,14004.00
2022-09-09T16:39:53.171Z,14364.00
2022-09-09T16:45:00.278Z,13500.00
2022-09-09T16:50:07.471Z,15840.00
2022-09-09T16:55:14.675Z,13104.00
2022-09-09T17:00:21.841Z,12708.00
2022-09-09T17:05:29.025Z,12060.00
2022-09-09T17:10:36.235Z,11376.00
2022-09-09T17:15:43.493Z,10764.00
2022-09-09T17:20:50.724Z,10800.00
2022-09-09T17:25:58.001Z,10116.00
2022-09-09T17:31:05.232Z,9972.00
2022-09-09T17:36:12.434Z,9900.00
2022-09-09T17:41:19.653Z,9792.00
2022-09-09T17:46:26.877Z,9684.00
2022-09-09T17:51:34.139Z,9324.00
2022-09-09T17:56:41.402Z,9360.00
2022-09-09T18:01:48.561Z,9288.00
2022-09-09T18:06:55.745Z,9216.00
2022-09-09T18:12:02.959Z,9288.00
2022-09-09T18:17:10.115Z,9144.00
2022-09-09T18:22:17.379Z,9144.00
2022-09-09T18:27:24.674Z,9180.00
2022-09-09T18:32:31.876Z,9144.00
2022-09-09T18:37:39.062Z,9180.00
2022-09-09T18:42:46.511Z,9216.00
2022-09-09T18:47:54.011Z,9288.00
2022-09-09T18:53:01.723Z,9216.00
2022-09-09T18:58:09.470Z,9360.00
2022-09-09T19:03:17.055Z,9036.00
2022-09-09T19:08:24.664Z,9108.00
2022-09-09T19:13:32.176Z,9108.00
2022-09-09T19:18:39.686Z,8928.00
2022-09-09T19:23:47.198Z,9360.00
2022-09-09T19:28:54.540Z,9252.00
2022-09-09T19:34:01.780Z,9504.00
2022-09-09T19:39:09.052Z,9108.00
2022-09-09T19:44:16.332Z,9180.00
2022-09-09T19:49:23.471Z,9396.00
2022-09-09T19:54:30.680Z,9324.00
2022-09-09T19:59:37.881Z,9000.00
2022-09-09T20:04:45.052Z,9072.00
2022-09-09T20:09:52.281Z,8964.00
2022-09-09T20:14:59.544Z,9108.00
2022-09-09T20:20:06.671Z,9000.00
2022-09-09T20:25:13.864Z,9216.00
2022-09-09T20:30:21.071Z,9324.00
2022-09-09T20:35:28.275Z,9324.00
2022-09-09T20:40:35.518Z,9180.00
2022-09-09T20:45:42.715Z,9252.00
2022-09-09T20:50:49.924Z,9036.00
2022-09-09T20:55:57.069Z,9252.00
2022-09-09T21:01:04.321Z,9252.00
2022-09-09T21:06:11.446Z,9828.00
2022-09-09T21:11:18.636Z,9900.00
2022-09-09T21:16:25.842Z,9792.00
2022-09-09T21:21:33.000Z,9900.00
2022-09-09T21:26:40.179Z,9972.00
2022-09-09T21:31:47.447Z,9900.00
2022-09-09T21:36:54.563Z,9828.00
2022-09-09T21:42:01.754Z,9864.00
2022-09-09T21:47:08.970Z,9828.00
2022-09-09T21:52:16.397Z,9972.00
2022-09-09T21:57:25.105Z,9972.00
2022-09-09T22:02:30.988Z,9972.00
2022-09-09T22:07:38.016Z,9756.00
2022-09-09T22:12:45.270Z,9972.00
2022-09-09T22:17:52.487Z,10008.00
2022-09-09T22:22:59.628Z,9936.00
2022-09-09T22:28:06.811Z,9720.00
2022-09-09T22:33:14.013Z,9828.00
2022-09-09T22:38:21.171Z,9792.00
2022-09-09T22:43:28.389Z,9756.00
2022-09-09T22:48:35.619Z,9900.00
2022-09-09T22:53:42.823Z,9792.00
2022-09-09T22:58:50.022Z,10044.00
2022-09-09T23:03:57.271Z,10008.00
2022-09-09T23:09:04.434Z,9792.00
2022-09-09T23:14:11.639Z,9828.00
2022-09-09T23:19:18.889Z,10080.00
2022-09-09T23:24:26.046Z,10008.00
2022-09-09T23:29:33.361Z,9684.00
2022-09-09T23:34:40.663Z,10008.00
2022-09-09T23:39:47.982Z,10044.00
2022-09-09T23:44:55.079Z,10044.00
2022-09-09T23:50:02.311Z,9684.00
2022-09-09T23:55:09.460Z,10152.00
